createdAt,value
2022-07-26T00:00:58.445Z,2.72
2022-07-26T00:03:25.790Z,2.67
2022-07-26T00:05:53.316Z,2.90
2022-07-26T00:08:20.927Z,3.40
2022-07-26T00:10:50.025Z,3.00
2022-07-26T00:13:20.048Z,3.00
2022-07-26T00:15:49.211Z,3.10
2022-07-26T00:18:17.422Z,2.67
2022-07-26T00:20:45.233Z,2.70
2022-07-26T00:23:12.839Z,3.17
2022-07-26T00:25:40.469Z,3.00
2022-07-26T00:28:07.746Z,3.03
2022-07-26T00:30:37.065Z,2.83
2022-07-26T00:33:04.961Z,3.03
2022-07-26T00:35:32.414Z,3.15
2022-07-26T00:38:00.017Z,2.90
2022-07-26T00:40:27.388Z,4.47
2022-07-26T00:42:54.767Z,2.75
2022-07-26T00:45:22.265Z,2.70
2022-07-26T00:47:50.339Z,2.42
2022-07-26T00:50:19.153Z,2.90
2022-07-26T00:52:48.883Z,2.60
2022-07-26T00:55:17.403Z,2.67
2022-07-26T00:57:45.512Z,2.50
2022-07-26T01:00:16.844Z,2.75
2022-07-26T01:02:44.982Z,2.38
2022-07-26T01:05:12.564Z,2.60
2022-07-26T01:07:41.005Z,2.85
2022-07-26T01:10:12.689Z,2.72
2022-07-26T01:12:41.394Z,2.92
2022-07-26T01:15:10.496Z,5.88
2022-07-26T01:17:38.742Z,2.90
2022-07-26T01:20:08.689Z,2.70
2022-07-26T01:22:36.406Z,2.70
2022-07-26T01:25:04.564Z,2.45
2022-07-26T01:27:34.114Z,2.72
2022-07-26T01:30:01.762Z,3.20
2022-07-26T01:32:29.207Z,2.47
2022-07-26T01:34:56.520Z,2.75
2022-07-26T01:37:24.031Z,2.60
2022-07-26T01:39:51.252Z,2.50
2022-07-26T01:42:18.621Z,2.50
2022-07-26T01:44:46.288Z,2.80
2022-07-26T01:47:13.743Z,3.03
2022-07-26T01:49:41.016Z,2.65
2022-07-26T01:52:08.667Z,2.63
2022-07-26T01:54:36.047Z,2.88
2022-07-26T01:57:03.471Z,2.30
2022-07-26T01:59:30.854Z,2.55
2022-07-26T02:02:00.638Z,2.40
2022-07-26T02:04:46.425Z,2.55
2022-07-26T02:07:13.935Z,2.83
2022-07-26T02:09:41.603Z,2.67
2022-07-26T02:12:08.976Z,2.50
2022-07-26T02:14:36.443Z,2.80
2022-07-26T02:17:03.768Z,2.70
2022-07-26T02:19:31.996Z,2.80
2022-07-26T02:21:59.861Z,2.90
2022-07-26T02:24:31.071Z,2.20
2022-07-26T02:26:59.727Z,2.55
2022-07-26T02:29:28.017Z,2.75
2022-07-26T02:31:56.429Z,2.63
2022-07-26T02:34:24.333Z,2.50
2022-07-26T02:36:51.920Z,2.78
2022-07-26T02:39:19.621Z,2.45
2022-07-26T02:41:46.901Z,2.95
2022-07-26T02:44:14.350Z,2.35
2022-07-26T02:46:41.627Z,2.42
2022-07-26T02:49:09.082Z,2.65
2022-07-26T02:51:36.620Z,2.60
2022-07-26T02:54:03.873Z,3.03
2022-07-26T02:56:31.119Z,2.55
2022-07-26T02:58:58.576Z,2.40
2022-07-26T03:01:25.985Z,2.42
2022-07-26T03:03:53.291Z,2.63
2022-07-26T03:06:20.746Z,3.10
2022-07-26T03:08:48.945Z,2.47
2022-07-26T03:11:16.362Z,2.53
2022-07-26T03:13:43.753Z,2.40
2022-07-26T03:16:11.111Z,2.60
2022-07-26T03:18:39.087Z,2.35
2022-07-26T03:21:06.840Z,2.47
2022-07-26T03:23:35.090Z,2.50
2022-07-26T03:26:02.614Z,2.42
2022-07-26T03:28:33.813Z,3.10
2022-07-26T03:31:01.423Z,2.47
2022-07-26T03:33:29.741Z,2.58
2022-07-26T03:35:57.197Z,3.25
2022-07-26T03:38:24.624Z,2.20
2022-07-26T03:40:52.511Z,2.60
2022-07-26T03:43:23.050Z,2.70
2022-07-26T03:45:51.216Z,2.70
2022-07-26T03:48:22.227Z,2.85
2022-07-26T03:50:49.929Z,3.13
2022-07-26T03:53:17.144Z,3.25
2022-07-26T03:56:03.290Z,3.60
2022-07-26T03:58:30.679Z,4.03
2022-07-26T04:00:58.105Z,4.30
2022-07-26T04:03:25.534Z,4.18
2022-07-26T04:05:52.870Z,4.22
2022-07-26T04:08:20.284Z,4.00
2022-07-26T04:10:48.353Z,3.90
2022-07-26T04:13:15.535Z,3.60
2022-07-26T04:15:43.003Z,3.80
2022-07-26T04:18:10.587Z,4.30
2022-07-26T04:20:37.860Z,3.97
2022-07-26T04:23:05.265Z,4.75
2022-07-26T04:25:41.346Z,4.63
2022-07-26T04:28:10.566Z,4.38
2022-07-26T04:30:39.160Z,6.15
2022-07-26T04:33:06.975Z,4.82
2022-07-26T04:35:35.079Z,4.70
2022-07-26T04:38:02.647Z,5.30
2022-07-26T04:40:33.516Z,5.07
2022-07-26T04:43:02.269Z,5.25
2022-07-26T04:45:30.469Z,5.28
2022-07-26T04:47:58.518Z,5.07
2022-07-26T04:50:28.218Z,5.53
2022-07-26T04:52:56.374Z,5.80
2022-07-26T04:55:24.249Z,5.80
2022-07-26T04:57:51.661Z,5.90
2022-07-26T05:00:24.246Z,5.45
2022-07-26T05:02:57.298Z,5.20
2022-07-26T05:05:26.276Z,5.20
2022-07-26T05:07:56.229Z,6.57
2022-07-26T05:10:33.918Z,5.82
2022-07-26T05:13:04.147Z,6.47
2022-07-26T05:15:35.363Z,6.53
2022-07-26T05:18:06.668Z,6.05
2022-07-26T05:20:35.045Z,6.80
2022-07-26T05:23:02.285Z,7.05
2022-07-26T05:25:30.076Z,7.95
2022-07-26T05:27:57.334Z,6.65
2022-07-26T05:30:24.765Z,6.63
2022-07-26T05:32:52.415Z,6.78
2022-07-26T05:35:19.626Z,7.15
2022-07-26T05:37:47.165Z,6.22
2022-07-26T05:40:14.983Z,7.57
2022-07-26T05:42:42.176Z,6.25
2022-07-26T05:45:09.999Z,6.03
2022-07-26T05:47:37.461Z,7.00
2022-07-26T05:50:06.042Z,6.35
2022-07-26T05:52:33.272Z,6.07
2022-07-26T05:55:00.675Z,6.13
2022-07-26T05:57:45.606Z,6.50
2022-07-26T06:00:14.416Z,6.88
2022-07-26T06:02:41.990Z,5.85
2022-07-26T06:05:09.572Z,5.78
2022-07-26T06:07:37.104Z,4.97
2022-07-26T06:10:05.042Z,4.80
2022-07-26T06:12:32.601Z,4.13
2022-07-26T06:14:59.992Z,3.78
2022-07-26T06:17:30.375Z,3.75
2022-07-26T06:19:58.881Z,4.40
2022-07-26T06:22:26.459Z,3.53
2022-07-26T06:24:53.662Z,3.17
2022-07-26T06:27:20.961Z,3.55
2022-07-26T06:29:49.265Z,3.88
2022-07-26T06:32:16.539Z,4.05
2022-07-26T06:34:43.845Z,3.67
2022-07-26T06:37:11.321Z,3.90
2022-07-26T06:39:38.527Z,3.30
2022-07-26T06:42:05.829Z,3.83
2022-07-26T06:44:33.277Z,3.30
2022-07-26T06:47:00.525Z,3.30
2022-07-26T06:49:27.839Z,3.15
2022-07-26T06:51:57.957Z,3.65
2022-07-26T06:54:25.269Z,3.70
2022-07-26T06:56:52.466Z,3.10
2022-07-26T06:59:19.887Z,3.30
2022-07-26T07:01:58.775Z,3.67
2022-07-26T07:04:32.311Z,3.40
2022-07-26T07:07:06.031Z,2.80
2022-07-26T07:09:34.444Z,2.50
2022-07-26T07:12:09.893Z,3.00
2022-07-26T07:14:39.238Z,2.83
2022-07-26T07:17:10.534Z,3.42
2022-07-26T07:19:40.756Z,2.80
2022-07-26T07:22:11.980Z,2.83
2022-07-26T07:24:41.401Z,2.80
2022-07-26T07:27:10.513Z,2.50
2022-07-26T07:29:38.756Z,2.63
2022-07-26T07:32:15.760Z,3.25
2022-07-26T07:34:47.643Z,2.28
2022-07-26T07:37:16.323Z,2.45
2022-07-26T07:39:43.547Z,3.00
2022-07-26T07:42:10.782Z,2.88
2022-07-26T07:44:38.195Z,2.55
2022-07-26T07:47:06.469Z,2.42
2022-07-26T07:49:33.796Z,2.42
2022-07-26T07:52:01.303Z,2.42
2022-07-26T07:54:30.120Z,2.67
2022-07-26T07:56:57.405Z,2.90
2022-07-26T07:59:24.967Z,2.65
2022-07-26T08:01:52.360Z,2.80
2022-07-26T08:04:19.859Z,2.42
2022-07-26T08:06:50.997Z,2.83
2022-07-26T08:09:19.713Z,2.20
2022-07-26T08:11:50.617Z,2.22
2022-07-26T08:14:19.556Z,2.72
2022-07-26T08:16:47.043Z,2.30
2022-07-26T08:19:15.702Z,2.53
2022-07-26T08:21:46.681Z,2.08
2022-07-26T08:24:14.248Z,2.05
2022-07-26T08:26:41.489Z,1.73
2022-07-26T08:29:08.868Z,1.80
2022-07-26T08:31:36.250Z,1.95
2022-07-26T08:34:03.843Z,2.15
2022-07-26T08:36:33.003Z,1.83
2022-07-26T08:39:01.738Z,2.03
2022-07-26T08:41:29.035Z,1.50
2022-07-26T08:44:05.083Z,1.95
2022-07-26T08:46:36.584Z,1.98
2022-07-26T08:49:06.944Z,1.80
2022-07-26T08:51:34.484Z,1.70
2022-07-26T08:54:05.683Z,1.50
2022-07-26T08:56:41.276Z,1.42
2022-07-26T08:59:20.530Z,1.23
2022-07-26T09:02:01.880Z,1.40
2022-07-26T09:04:34.709Z,1.00
2022-07-26T09:07:10.708Z,1.45
2022-07-26T09:09:58.258Z,1.23
2022-07-26T09:12:27.107Z,1.25
2022-07-26T09:14:55.114Z,1.25
2022-07-26T09:17:25.226Z,1.05
2022-07-26T09:20:09.579Z,1.40
2022-07-26T09:22:58.990Z,1.02
2022-07-26T09:25:27.734Z,1.23
2022-07-26T09:27:55.335Z,1.00
2022-07-26T09:30:23.248Z,1.67
2022-07-26T09:33:02.874Z,1.20
2022-07-26T09:35:50.088Z,1.05
2022-07-26T09:38:19.409Z,1.08
2022-07-26T09:40:50.385Z,1.33
2022-07-26T09:43:22.107Z,1.00
2022-07-26T09:46:07.161Z,1.30
2022-07-26T09:49:07.750Z,1.10
2022-07-26T09:51:41.513Z,1.10
2022-07-26T09:54:35.589Z,1.23
2022-07-26T09:57:04.318Z,1.17
2022-07-26T09:59:31.696Z,0.90
2022-07-26T10:02:00.395Z,1.00
2022-07-26T10:04:29.372Z,1.00
2022-07-26T10:06:59.524Z,1.13
2022-07-26T10:09:34.885Z,0.80
2022-07-26T10:12:05.664Z,0.90
2022-07-26T10:14:32.979Z,1.00
2022-07-26T10:17:02.297Z,0.70
2022-07-26T10:19:41.439Z,1.02
2022-07-26T10:22:56.795Z,0.80
2022-07-26T10:25:24.291Z,0.55
2022-07-26T10:27:57.925Z,0.73
2022-07-26T10:30:35.163Z,0.80
2022-07-26T10:33:15.954Z,0.75
2022-07-26T10:35:44.029Z,0.77
2022-07-26T10:38:12.597Z,0.73
2022-07-26T10:40:55.132Z,0.90
2022-07-26T10:43:40.042Z,0.93
2022-07-26T10:46:20.598Z,0.60
2022-07-26T10:49:06.986Z,0.80
2022-07-26T10:51:40.619Z,1.23
2022-07-26T10:54:12.785Z,0.93
2022-07-26T10:56:40.715Z,1.38
2022-07-26T10:59:08.312Z,1.40
2022-07-26T11:01:42.138Z,1.42
2022-07-26T11:04:22.866Z,1.40
2022-07-26T11:06:51.317Z,0.80
2022-07-26T11:09:20.716Z,0.90
2022-07-26T11:11:48.835Z,0.80
2022-07-26T11:14:18.328Z,0.80
2022-07-26T11:16:48.160Z,0.70
2022-07-26T11:19:24.883Z,0.77
2022-07-26T11:22:00.443Z,0.70
2022-07-26T11:24:28.659Z,0.77
2022-07-26T11:27:03.809Z,0.50
2022-07-26T11:29:39.195Z,0.70
2022-07-26T11:32:28.692Z,0.40
2022-07-26T11:35:01.262Z,1.00
2022-07-26T11:37:28.875Z,0.40
2022-07-26T11:39:57.468Z,0.65
2022-07-26T11:42:24.857Z,0.57
2022-07-26T11:44:54.236Z,0.77
2022-07-26T11:47:25.624Z,1.10
2022-07-26T11:50:21.936Z,0.85
2022-07-26T11:52:45.000Z,0.60
2022-07-26T11:55:12.796Z,0.60
2022-07-26T11:57:40.060Z,0.65
2022-07-26T12:00:08.137Z,0.60
2022-07-26T12:02:41.913Z,0.60
2022-07-26T12:05:19.211Z,0.77
2022-07-26T12:07:56.044Z,0.40
2022-07-26T12:10:24.292Z,0.57
2022-07-26T12:13:06.941Z,0.50
2022-07-26T12:15:50.483Z,0.30
2022-07-26T12:18:30.816Z,0.30
2022-07-26T12:21:07.074Z,0.40
2022-07-26T12:23:42.532Z,0.40
2022-07-26T12:26:28.392Z,0.40
2022-07-26T12:28:57.643Z,0.43
2022-07-26T12:31:34.386Z,0.43
2022-07-26T12:34:02.335Z,0.40
2022-07-26T12:36:33.294Z,0.40
2022-07-26T12:39:01.084Z,0.40
2022-07-26T12:41:36.052Z,0.50
2022-07-26T12:44:05.205Z,0.68
2022-07-26T12:46:36.349Z,0.55
2022-07-26T12:49:04.757Z,0.65
2022-07-26T12:51:32.459Z,0.75
2022-07-26T12:54:00.018Z,0.73
2022-07-26T12:56:27.297Z,0.82
2022-07-26T12:59:00.773Z,0.40
2022-07-26T13:01:30.171Z,0.40
2022-07-26T13:03:57.849Z,0.88
2022-07-26T13:06:25.186Z,0.65
2022-07-26T13:08:52.630Z,0.50
2022-07-26T13:11:19.875Z,0.50
2022-07-26T13:13:47.210Z,0.40
2022-07-26T13:16:14.597Z,0.60
2022-07-26T13:18:41.860Z,0.47
2022-07-26T13:21:09.093Z,0.70
2022-07-26T13:23:36.492Z,0.43
2022-07-26T13:26:04.406Z,0.60
2022-07-26T13:28:37.131Z,0.70
2022-07-26T13:31:04.724Z,0.88
2022-07-26T13:33:35.085Z,0.50
2022-07-26T13:36:02.476Z,0.50
2022-07-26T13:38:33.527Z,0.50
2022-07-26T13:41:05.188Z,0.68
2022-07-26T13:43:32.789Z,0.40
2022-07-26T13:46:00.184Z,0.68
2022-07-26T13:48:28.365Z,0.55
2022-07-26T13:50:57.559Z,0.40
2022-07-26T13:53:25.071Z,0.25
2022-07-26T13:55:52.832Z,0.30
2022-07-26T13:58:21.822Z,0.63
2022-07-26T14:00:49.383Z,0.80
2022-07-26T14:03:16.891Z,0.40
2022-07-26T14:05:44.408Z,0.50
2022-07-26T14:08:11.695Z,0.43
2022-07-26T14:10:39.974Z,0.32
2022-07-26T14:13:08.823Z,0.50
2022-07-26T14:15:36.406Z,0.60
2022-07-26T14:18:04.126Z,0.68
2022-07-26T14:20:31.579Z,0.47
2022-07-26T14:22:58.789Z,0.70
2022-07-26T14:25:27.568Z,0.70
2022-07-26T14:27:55.724Z,0.50
2022-07-26T14:30:23.355Z,0.50
2022-07-26T14:32:51.110Z,0.70
2022-07-26T14:35:18.737Z,0.60
2022-07-26T14:37:46.387Z,0.70
2022-07-26T14:40:17.473Z,0.80
2022-07-26T14:42:46.027Z,0.68
2022-07-26T14:45:13.839Z,0.40
2022-07-26T14:47:41.444Z,0.68
2022-07-26T14:50:10.451Z,0.57
2022-07-26T14:52:43.638Z,0.50
2022-07-26T14:55:11.334Z,0.35
2022-07-26T14:57:40.260Z,0.65
2022-07-26T15:00:12.031Z,0.50
2022-07-26T15:02:41.630Z,2.65
2022-07-26T15:05:10.456Z,2.25
2022-07-26T15:07:38.581Z,0.60
2022-07-26T15:10:08.606Z,0.73
2022-07-26T15:12:36.120Z,0.70
2022-07-26T15:15:05.415Z,0.63
2022-07-26T15:17:33.013Z,0.50
2022-07-26T15:20:00.581Z,0.75
2022-07-26T15:22:27.892Z,0.50
2022-07-26T15:24:55.343Z,0.50
2022-07-26T15:27:22.525Z,0.52
2022-07-26T15:29:50.832Z,0.43
2022-07-26T15:32:20.348Z,0.63
2022-07-26T15:34:47.627Z,0.70
2022-07-26T15:37:14.854Z,0.50
2022-07-26T15:39:42.355Z,0.70
2022-07-26T15:42:10.061Z,0.50
2022-07-26T15:44:41.190Z,0.57
2022-07-26T15:47:08.919Z,0.30
2022-07-26T15:49:40.413Z,0.50
2022-07-26T15:52:11.535Z,0.40
2022-07-26T15:54:41.427Z,0.65
2022-07-26T15:57:09.039Z,0.85
2022-07-26T15:59:36.316Z,0.60
2022-07-26T16:02:06.104Z,0.35
2022-07-26T16:04:33.890Z,0.45
2022-07-26T16:07:01.710Z,0.50
2022-07-26T16:09:29.169Z,0.65
2022-07-26T16:11:56.415Z,0.35
2022-07-26T16:14:23.630Z,0.50
2022-07-26T16:16:51.225Z,0.50
2022-07-26T16:19:18.600Z,0.70
2022-07-26T16:21:45.793Z,0.60
2022-07-26T16:24:13.411Z,0.75
2022-07-26T16:26:42.460Z,0.70
2022-07-26T16:29:10.049Z,0.57
2022-07-26T16:31:38.100Z,0.60
2022-07-26T16:34:05.314Z,0.52
2022-07-26T16:36:32.916Z,0.80
2022-07-26T16:39:00.403Z,0.50
2022-07-26T16:41:29.124Z,0.77
2022-07-26T16:43:56.658Z,0.65
2022-07-26T16:46:24.691Z,0.52
2022-07-26T16:48:52.079Z,0.80
2022-07-26T16:51:20.038Z,0.60
2022-07-26T16:53:51.341Z,0.68
2022-07-26T16:56:18.711Z,0.70
2022-07-26T16:58:46.247Z,0.60
2022-07-26T17:01:13.778Z,0.75
2022-07-26T17:03:41.085Z,1.00
2022-07-26T17:06:09.048Z,0.80
2022-07-26T17:08:36.509Z,1.65
2022-07-26T17:11:04.069Z,1.10
2022-07-26T17:13:31.387Z,0.65
2022-07-26T17:15:59.001Z,0.50
2022-07-26T17:18:26.504Z,0.30
2022-07-26T17:20:53.791Z,0.57
2022-07-26T17:23:21.348Z,0.50
2022-07-26T17:25:48.564Z,0.40
2022-07-26T17:28:15.832Z,0.68
2022-07-26T17:30:43.264Z,0.50
2022-07-26T17:33:10.772Z,0.40
2022-07-26T17:35:38.067Z,0.25
2022-07-26T17:38:05.517Z,0.50
2022-07-26T17:40:33.912Z,0.43
2022-07-26T17:43:01.186Z,0.50
2022-07-26T17:45:28.642Z,0.25
2022-07-26T17:47:56.105Z,0.40
2022-07-26T17:50:36.597Z,0.40
2022-07-26T17:53:05.237Z,0.32
2022-07-26T17:55:32.548Z,0.47
2022-07-26T17:57:59.837Z,0.73
2022-07-26T18:00:29.056Z,0.45
2022-07-26T18:02:57.735Z,0.40
2022-07-26T18:05:30.348Z,0.30
2022-07-26T18:08:00.849Z,0.30
2022-07-26T18:10:28.364Z,0.30
2022-07-26T18:12:55.778Z,0.30
2022-07-26T18:15:23.206Z,0.30
2022-07-26T18:17:50.436Z,0.43
2022-07-26T18:20:17.691Z,0.20
2022-07-26T18:22:45.844Z,0.50
2022-07-26T18:25:17.439Z,0.40
2022-07-26T18:27:44.780Z,0.50
2022-07-26T18:30:12.489Z,0.47
2022-07-26T18:32:39.974Z,0.75
2022-07-26T18:35:07.740Z,0.60
2022-07-26T18:37:35.423Z,0.40
2022-07-26T18:40:03.008Z,0.20
2022-07-26T18:42:30.692Z,0.20
2022-07-26T18:44:58.165Z,0.28
2022-07-26T18:47:25.697Z,0.45
2022-07-26T18:49:53.137Z,0.70
2022-07-26T18:52:28.456Z,0.20
2022-07-26T18:54:59.605Z,0.50
2022-07-26T18:57:27.197Z,0.30
2022-07-26T18:59:54.531Z,0.43
2022-07-26T19:02:21.814Z,0.40
2022-07-26T19:04:49.301Z,0.20
2022-07-26T19:07:16.878Z,0.43
2022-07-26T19:09:44.283Z,0.20
2022-07-26T19:12:11.713Z,0.55
2022-07-26T19:14:38.987Z,0.47
2022-07-26T19:17:09.946Z,0.22
2022-07-26T19:19:38.607Z,0.40
2022-07-26T19:22:06.073Z,0.30
2022-07-26T19:24:42.121Z,0.20
2022-07-26T19:27:09.613Z,0.40
2022-07-26T19:29:37.729Z,0.38
2022-07-26T19:32:05.696Z,0.57
2022-07-26T19:34:32.922Z,0.55
2022-07-26T19:37:00.168Z,0.30
2022-07-26T19:39:27.749Z,0.40
2022-07-26T19:41:55.363Z,0.30
2022-07-26T19:44:22.814Z,0.17
2022-07-26T19:46:52.990Z,0.52
2022-07-26T19:49:22.994Z,0.45
2022-07-26T19:51:50.362Z,0.28
2022-07-26T19:54:18.042Z,0.50
2022-07-26T19:56:45.314Z,0.40
2022-07-26T19:59:13.103Z,0.30
2022-07-26T20:01:42.141Z,0.30
2022-07-26T20:04:09.567Z,0.30
2022-07-26T20:06:36.844Z,0.30
2022-07-26T20:09:05.107Z,0.50
2022-07-26T20:11:35.332Z,0.50
2022-07-26T20:14:02.870Z,0.30
2022-07-26T20:16:30.734Z,0.40
2022-07-26T20:18:58.445Z,0.70
2022-07-26T20:21:25.759Z,0.40
2022-07-26T20:23:53.192Z,0.65
2022-07-26T20:26:21.044Z,0.47
2022-07-26T20:28:49.223Z,0.50
2022-07-26T20:31:17.878Z,1.05
2022-07-26T20:33:45.195Z,0.60
2022-07-26T20:36:12.521Z,0.50
2022-07-26T20:38:42.378Z,0.60
2022-07-26T20:41:09.654Z,0.50
2022-07-26T20:43:37.862Z,0.65
2022-07-26T20:46:05.337Z,0.43
2022-07-26T20:48:32.709Z,0.40
2022-07-26T20:51:00.199Z,0.80
2022-07-26T20:53:27.670Z,0.30
2022-07-26T20:55:54.891Z,0.43
2022-07-26T20:58:22.376Z,0.52
2022-07-26T21:00:49.873Z,0.60
2022-07-26T21:03:17.394Z,0.73
2022-07-26T21:05:45.221Z,0.40
2022-07-26T21:08:13.032Z,0.63
2022-07-26T21:10:40.223Z,0.65
2022-07-26T21:13:07.454Z,0.43
2022-07-26T21:15:34.976Z,0.50
2022-07-26T21:18:02.345Z,0.50
2022-07-26T21:20:31.245Z,0.50
2022-07-26T21:23:12.784Z,0.68
2022-07-26T21:25:43.852Z,0.82
2022-07-26T21:28:11.255Z,0.60
2022-07-26T21:30:38.755Z,0.43
2022-07-26T21:33:06.225Z,0.90
2022-07-26T21:35:33.844Z,0.57
2022-07-26T21:38:01.190Z,0.47
2022-07-26T21:40:28.525Z,0.50
2022-07-26T21:42:55.937Z,0.50
2022-07-26T21:45:23.194Z,0.98
2022-07-26T21:47:50.569Z,0.50
2022-07-26T21:50:18.108Z,0.60
2022-07-26T21:52:45.384Z,0.50
2022-07-26T21:55:18.172Z,0.50
2022-07-26T21:57:45.944Z,0.90
2022-07-26T22:00:15.827Z,0.50
2022-07-26T22:02:43.229Z,0.65
2022-07-26T22:05:29.212Z,0.57
2022-07-26T22:07:56.629Z,1.10
2022-07-26T22:10:24.133Z,0.40
2022-07-26T22:12:51.547Z,0.52
2022-07-26T22:15:19.065Z,0.38
2022-07-26T22:17:46.520Z,0.50
2022-07-26T22:20:13.852Z,0.47
2022-07-26T22:22:41.109Z,0.40
2022-07-26T22:25:08.854Z,0.70
2022-07-26T22:27:36.108Z,0.75
2022-07-26T22:30:04.193Z,0.68
2022-07-26T22:32:31.722Z,0.70
2022-07-26T22:34:59.042Z,0.90
2022-07-26T22:37:26.254Z,0.63
2022-07-26T22:39:53.750Z,0.60
2022-07-26T22:42:20.964Z,0.93
2022-07-26T22:44:48.189Z,0.65
2022-07-26T22:47:15.662Z,0.77
2022-07-26T22:49:43.127Z,0.77
2022-07-26T22:52:10.441Z,0.70
2022-07-26T22:54:37.932Z,0.50
2022-07-26T22:57:05.237Z,0.80
2022-07-26T22:59:32.466Z,1.10
2022-07-26T23:01:59.893Z,0.50
2022-07-26T23:04:27.175Z,0.98
2022-07-26T23:06:55.570Z,0.90
2022-07-26T23:09:26.109Z,0.73
2022-07-26T23:11:53.272Z,0.80
2022-07-26T23:14:20.611Z,0.88
2022-07-26T23:16:48.145Z,0.65
2022-07-26T23:19:15.726Z,1.10
2022-07-26T23:21:43.013Z,1.05
2022-07-26T23:24:10.807Z,0.77
2022-07-26T23:26:38.350Z,1.02
2022-07-26T23:29:05.638Z,0.57
2022-07-26T23:31:33.154Z,0.95
2022-07-26T23:34:00.531Z,0.57
2022-07-26T23:36:28.766Z,0.50
2022-07-26T23:38:58.655Z,0.60
2022-07-26T23:41:27.028Z,0.77
2022-07-26T23:43:54.858Z,0.80
2022-07-26T23:46:23.605Z,1.25
2022-07-26T23:48:51.376Z,0.80
2022-07-26T23:51:19.637Z,0.70
2022-07-26T23:53:47.619Z,0.68
2022-07-26T23:56:15.586Z,0.90
2022-07-26T23:58:42.981Z,0.68
